気象予報士の航空気象 飛行機は風に弱いって知ってます?

*All archives   *Admin

スポンサーサイト

上記の広告は1ヶ月以上更新のないブログに表示されています。
新しい記事を書く事で広告が消せます。
--:--  |  スポンサー広告  |  EDIT  |  Top↑

2010.03.20 (Sat)

飛行機は風に弱いって知ってます?

RJTT 200000Z 11004KT 070V140 7000 NSC 10/06 Q1011 RMK A2988


 羽田の穏やかな朝をむかえました。


しかし、


RJTT 200123Z 22019G32KT CAVOK 19/06 Q1009 RMK A2982


午前10時過ぎには南西の強風が吹き始めます。


今日はLDA22アプローチを多用していました。


RJTT 200930Z 21028G40KT 9000 NSC 19/12 Q1004 RMK A2965


夕方には40ノットを超えました。


 成田も羽田も終日30-40ノットの南西風が吹き荒れ、特に南風に弱い羽田は遅延・欠航が多数にのぼるたいへんな1日になりました。


おそらく、明日にも影響が残ることでしょう。


 原因は、日本海で急発達中の低気圧。


ASAS20MAR10.jpg


ブログランキングに参加しています。
にほんブログ村 環境ブログ 天気・気象学へ
にほんブログ村
応援クリックをおねがします。


以下、アフィリエイトサイトです。




スポンサーサイト
23:26  |  気象・天気  |  TB(0)  |  CM(0)  |  EDIT  |  Top↑

コメントを投稿する


 管理者だけに表示  (非公開コメント投稿可能)

▲PageTop

この記事のトラックバックURL

→http://weathereucalyptus.blog115.fc2.com/tb.php/427-3e584a3f
この記事にトラックバックする(FC2ブログユーザー)

この記事へのトラックバック

▲PageTop

 | BLOGTOP | 
上記広告は1ヶ月以上更新のないブログに表示されています。新しい記事を書くことで広告を消せます。